sensor_id;sensor_type;location;lat;lon;timestamp;pressure;altitude;pressure_sealevel;temperature;humidity
19114;BME280;9689;51.052;13.772;2023-02-08T00:00:43;102938.13;;;-4.99;84.94
19114;BME280;9689;51.052;13.772;2023-02-08T00:05:44;102938.63;;;-5.03;85.24
19114;BME280;9689;51.052;13.772;2023-02-08T00:10:46;102942.06;;;-5.02;85.03
19114;BME280;9689;51.052;13.772;2023-02-08T00:15:46;102933.28;;;-5.06;84.87
19114;BME280;9689;51.052;13.772;2023-02-08T00:20:47;102932.13;;;-5.09;84.82
19114;BME280;9689;51.052;13.772;2023-02-08T00:25:50;102927.06;;;-5.09;85.05
19114;BME280;9689;51.052;13.772;2023-02-08T00:30:50;102942.03;;;-5.13;84.73
19114;BME280;9689;51.052;13.772;2023-02-08T00:35:57;102939.22;;;-5.16;84.54
19114;BME280;9689;51.052;13.772;2023-02-08T00:40:59;102937.09;;;-5.11;84.74
19114;BME280;9689;51.052;13.772;2023-02-08T00:46:00;102934.91;;;-5.17;84.56
19114;BME280;9689;51.052;13.772;2023-02-08T00:51:02;102927.91;;;-5.19;84.09
19114;BME280;9689;51.052;13.772;2023-02-08T00:56:06;102916.97;;;-5.28;84.35
19114;BME280;9689;51.052;13.772;2023-02-08T01:01:06;102928.16;;;-5.26;84.26
19114;BME280;9689;51.052;13.772;2023-02-08T01:06:09;102923.41;;;-5.32;84.35
19114;BME280;9689;51.052;13.772;2023-02-08T01:11:13;102915.41;;;-5.36;84.62
19114;BME280;9689;51.052;13.772;2023-02-08T01:16:18;102916.13;;;-5.48;84.88
19114;BME280;9689;51.052;13.772;2023-02-08T01:21:21;102910.31;;;-5.47;84.67
19114;BME280;9689;51.052;13.772;2023-02-08T01:26:24;102905.72;;;-5.51;84.52
19114;BME280;9689;51.052;13.772;2023-02-08T01:31:28;102905.44;;;-5.54;84.61
19114;BME280;9689;51.052;13.772;2023-02-08T01:36:32;102904.91;;;-5.60;84.78
19114;BME280;9689;51.052;13.772;2023-02-08T01:41:37;102912.28;;;-5.63;84.56
19114;BME280;9689;51.052;13.772;2023-02-08T01:46:40;102895.72;;;-5.68;84.24
19114;BME280;9689;51.052;13.772;2023-02-08T01:51:45;102900.81;;;-5.68;84.58
19114;BME280;9689;51.052;13.772;2023-02-08T01:56:49;102896.00;;;-5.65;84.88
19114;BME280;9689;51.052;13.772;2023-02-08T02:01:51;102887.22;;;-5.69;84.67
19114;BME280;9689;51.052;13.772;2023-02-08T02:06:56;102895.59;;;-5.70;84.43
19114;BME280;9689;51.052;13.772;2023-02-08T02:12:00;102900.44;;;-5.73;85.01
19114;BME280;9689;51.052;13.772;2023-02-08T02:17:01;102892.06;;;-5.72;84.64
19114;BME280;9689;51.052;13.772;2023-02-08T02:22:10;102893.28;;;-5.77;84.90
19114;BME280;9689;51.052;13.772;2023-02-08T02:27:30;102884.03;;;-5.76;84.86
19114;BME280;9689;51.052;13.772;2023-02-08T02:32:48;102893.16;;;-5.78;84.94
19114;BME280;9689;51.052;13.772;2023-02-08T02:37:57;102882.88;;;-5.80;85.02
19114;BME280;9689;51.052;13.772;2023-02-08T02:43:11;102879.66;;;-5.87;84.50
19114;BME280;9689;51.052;13.772;2023-02-08T02:48:38;102886.78;;;-5.83;84.31
19114;BME280;9689;51.052;13.772;2023-02-08T02:53:46;102889.06;;;-5.86;84.50
19114;BME280;9689;51.052;13.772;2023-02-08T02:58:49;102880.56;;;-5.87;83.87
19114;BME280;9689;51.052;13.772;2023-02-08T03:03:53;102875.22;;;-5.90;84.23
19114;BME280;9689;51.052;13.772;2023-02-08T03:09:01;102876.47;;;-5.95;84.37
19114;BME280;9689;51.052;13.772;2023-02-08T03:14:19;102884.09;;;-5.95;84.08
19114;BME280;9689;51.052;13.772;2023-02-08T03:19:30;102880.25;;;-6.00;83.85
19114;BME280;9689;51.052;13.772;2023-02-08T03:24:41;102884.06;;;-6.05;84.18
19114;BME280;9689;51.052;13.772;2023-02-08T03:29:50;102889.75;;;-6.08;83.97
19114;BME280;9689;51.052;13.772;2023-02-08T03:34:58;102892.63;;;-6.13;84.33
19114;BME280;9689;51.052;13.772;2023-02-08T03:40:05;102901.75;;;-6.15;84.10
19114;BME280;9689;51.052;13.772;2023-02-08T03:45:11;102904.56;;;-6.12;84.08
19114;BME280;9689;51.052;13.772;2023-02-08T03:50:16;102906.69;;;-6.17;83.99
19114;BME280;9689;51.052;13.772;2023-02-08T03:55:22;102910.22;;;-6.25;84.44
19114;BME280;9689;51.052;13.772;2023-02-08T04:00:24;102915.28;;;-6.25;84.50
19114;BME280;9689;51.052;13.772;2023-02-08T04:05:28;102926.03;;;-6.28;84.62
19114;BME280;9689;51.052;13.772;2023-02-08T04:10:28;102918.16;;;-6.31;84.66
19114;BME280;9689;51.052;13.772;2023-02-08T04:15:29;102925.75;;;-6.31;84.29
19114;BME280;9689;51.052;13.772;2023-02-08T04:20:32;102920.25;;;-6.35;84.50
19114;BME280;9689;51.052;13.772;2023-02-08T04:25:32;102919.09;;;-6.39;84.52
19114;BME280;9689;51.052;13.772;2023-02-08T04:30:33;102913.78;;;-6.42;84.52
19114;BME280;9689;51.052;13.772;2023-02-08T04:35:35;102917.47;;;-6.38;84.19
19114;BME280;9689;51.052;13.772;2023-02-08T04:40:36;102912.59;;;-6.45;84.01
19114;BME280;9689;51.052;13.772;2023-02-08T04:45:37;102904.97;;;-6.45;83.78
19114;BME280;9689;51.052;13.772;2023-02-08T04:50:39;102901.75;;;-6.53;84.26
19114;BME280;9689;51.052;13.772;2023-02-08T04:55:40;102888.94;;;-6.55;84.54
19114;BME280;9689;51.052;13.772;2023-02-08T05:00:41;102893.75;;;-6.58;83.87
19114;BME280;9689;51.052;13.772;2023-02-08T05:05:43;102898.25;;;-6.64;84.42
19114;BME280;9689;51.052;13.772;2023-02-08T05:10:44;102890.31;;;-6.58;84.34
19114;BME280;9689;51.052;13.772;2023-02-08T05:15:45;102885.69;;;-6.62;84.39
19114;BME280;9689;51.052;13.772;2023-02-08T05:20:54;102890.63;;;-6.64;83.87
19114;BME280;9689;51.052;13.772;2023-02-08T05:25:55;102897.34;;;-6.64;84.50
19114;BME280;9689;51.052;13.772;2023-02-08T05:30:55;102898.50;;;-6.61;83.82
19114;BME280;9689;51.052;13.772;2023-02-08T05:35:58;102905.22;;;-6.61;84.31
19114;BME280;9689;51.052;13.772;2023-02-08T05:40:58;102907.75;;;-6.61;84.39
19114;BME280;9689;51.052;13.772;2023-02-08T05:45:59;102898.09;;;-6.65;83.83
19114;BME280;9689;51.052;13.772;2023-02-08T05:51:01;102903.31;;;-6.64;84.60
19114;BME280;9689;51.052;13.772;2023-02-08T05:56:02;102903.94;;;-6.66;83.93
19114;BME280;9689;51.052;13.772;2023-02-08T06:01:07;102904.50;;;-6.60;84.29
19114;BME280;9689;51.052;13.772;2023-02-08T06:06:09;102908.59;;;-6.52;84.41
19114;BME280;9689;51.052;13.772;2023-02-08T06:11:10;102909.28;;;-6.44;84.40
19114;BME280;9689;51.052;13.772;2023-02-08T06:16:11;102908.81;;;-6.40;83.72
19114;BME280;9689;51.052;13.772;2023-02-08T06:21:13;102905.94;;;-6.35;84.48
19114;BME280;9689;51.052;13.772;2023-02-08T06:26:13;102908.00;;;-6.12;84.44
19114;BME280;9689;51.052;13.772;2023-02-08T06:31:14;102917.84;;;-5.67;85.44
19114;BME280;9689;51.052;13.772;2023-02-08T06:36:16;102919.28;;;-5.50;84.39
19114;BME280;9689;51.052;13.772;2023-02-08T06:41:17;102922.28;;;-5.35;83.17
19114;BME280;9689;51.052;13.772;2023-02-08T06:46:18;102924.94;;;-5.34;83.11
19114;BME280;9689;51.052;13.772;2023-02-08T06:51:20;102925.25;;;-5.21;82.19
19114;BME280;9689;51.052;13.772;2023-02-08T06:56:21;102939.88;;;-5.08;81.85
19114;BME280;9689;51.052;13.772;2023-02-08T07:01:21;102939.66;;;-5.01;80.92
19114;BME280;9689;51.052;13.772;2023-02-08T07:06:24;102932.31;;;-4.77;80.93
19114;BME280;9689;51.052;13.772;2023-02-08T07:11:24;102946.53;;;-4.69;79.71
19114;BME280;9689;51.052;13.772;2023-02-08T07:16:25;102935.63;;;-4.68;79.29
19114;BME280;9689;51.052;13.772;2023-02-08T07:21:27;102944.28;;;-4.56;78.74
19114;BME280;9689;51.052;13.772;2023-02-08T07:26:28;102940.72;;;-4.48;78.40
19114;BME280;9689;51.052;13.772;2023-02-08T07:31:29;102931.41;;;-4.37;78.10
19114;BME280;9689;51.052;13.772;2023-02-08T07:36:31;102927.47;;;-4.34;78.00
19114;BME280;9689;51.052;13.772;2023-02-08T07:41:34;102933.56;;;-4.21;77.55
19114;BME280;9689;51.052;13.772;2023-02-08T07:46:34;102936.38;;;-4.08;77.06
19114;BME280;9689;51.052;13.772;2023-02-08T07:51:36;102925.75;;;-4.03;76.66
19114;BME280;9689;51.052;13.772;2023-02-08T07:56:37;102926.78;;;-3.90;76.36
19114;BME280;9689;51.052;13.772;2023-02-08T08:01:38;102920.44;;;-3.74;75.55
19114;BME280;9689;51.052;13.772;2023-02-08T08:06:40;102934.84;;;-3.64;75.04
19114;BME280;9689;51.052;13.772;2023-02-08T08:11:41;102940.00;;;-3.52;74.48
19114;BME280;9689;51.052;13.772;2023-02-08T08:16:41;102947.22;;;-3.36;73.68
19114;BME280;9689;51.052;13.772;2023-02-08T08:21:43;102947.50;;;-3.22;73.25
19114;BME280;9689;51.052;13.772;2023-02-08T08:26:44;102949.88;;;-3.13;72.89
19114;BME280;9689;51.052;13.772;2023-02-08T08:31:45;102954.28;;;-3.00;72.67
19114;BME280;9689;51.052;13.772;2023-02-08T08:36:47;102947.63;;;-2.98;72.25
19114;BME280;9689;51.052;13.772;2023-02-08T08:41:47;102953.09;;;-2.94;72.13
19114;BME280;9689;51.052;13.772;2023-02-08T08:46:48;102948.63;;;-2.74;71.89
19114;BME280;9689;51.052;13.772;2023-02-08T08:51:50;102952.44;;;-2.69;71.34
19114;BME280;9689;51.052;13.772;2023-02-08T08:56:51;102957.56;;;-2.58;71.53
19114;BME280;9689;51.052;13.772;2023-02-08T09:01:52;102959.66;;;-2.52;70.84
19114;BME280;9689;51.052;13.772;2023-02-08T09:06:54;102952.53;;;-2.34;70.13
19114;BME280;9689;51.052;13.772;2023-02-08T09:11:55;102960.50;;;-2.41;70.44
19114;BME280;9689;51.052;13.772;2023-02-08T09:16:55;102958.34;;;-2.13;70.07
19114;BME280;9689;51.052;13.772;2023-02-08T09:21:57;102969.78;;;-1.96;68.90
19114;BME280;9689;51.052;13.772;2023-02-08T09:26:59;102961.69;;;-1.91;68.89
19114;BME280;9689;51.052;13.772;2023-02-08T09:32:00;102962.22;;;-1.83;67.38
19114;BME280;9689;51.052;13.772;2023-02-08T09:37:02;102964.13;;;-1.69;67.61
19114;BME280;9689;51.052;13.772;2023-02-08T09:42:13;102960.34;;;-1.51;66.99
19114;BME280;9689;51.052;13.772;2023-02-08T09:47:18;102968.75;;;-1.40;66.46
19114;BME280;9689;51.052;13.772;2023-02-08T09:52:23;102968.31;;;-1.34;65.97
19114;BME280;9689;51.052;13.772;2023-02-08T09:57:29;102974.44;;;-1.32;65.27
19114;BME280;9689;51.052;13.772;2023-02-08T10:02:33;102976.19;;;-1.20;64.94
19114;BME280;9689;51.052;13.772;2023-02-08T10:07:35;102960.59;;;-1.11;65.23
19114;BME280;9689;51.052;13.772;2023-02-08T10:12:41;102953.97;;;-0.96;65.42
19114;BME280;9689;51.052;13.772;2023-02-08T10:18:04;102955.66;;;-0.96;63.41
19114;BME280;9689;51.052;13.772;2023-02-08T10:23:21;102952.28;;;-0.83;63.18
19114;BME280;9689;51.052;13.772;2023-02-08T10:28:31;102945.69;;;-0.80;63.65
19114;BME280;9689;51.052;13.772;2023-02-08T10:33:39;102946.38;;;-0.82;62.29
19114;BME280;9689;51.052;13.772;2023-02-08T10:38:46;102946.31;;;-0.71;62.11
19114;BME280;9689;51.052;13.772;2023-02-08T10:43:51;102933.63;;;-0.69;61.89
19114;BME280;9689;51.052;13.772;2023-02-08T10:49:01;102934.25;;;-0.60;61.22
19114;BME280;9689;51.052;13.772;2023-02-08T10:54:10;102930.13;;;-0.45;61.58
19114;BME280;9689;51.052;13.772;2023-02-08T10:59:20;102906.94;;;-0.35;60.80
19114;BME280;9689;51.052;13.772;2023-02-08T11:04:21;102903.16;;;-0.26;60.21
19114;BME280;9689;51.052;13.772;2023-02-08T11:09:25;102888.63;;;-0.14;60.39
19114;BME280;9689;51.052;13.772;2023-02-08T11:14:29;102885.06;;;-0.16;60.40
19114;BME280;9689;51.052;13.772;2023-02-08T11:19:45;102884.50;;;0.01;59.75
19114;BME280;9689;51.052;13.772;2023-02-08T11:24:54;102883.88;;;0.18;59.78
19114;BME280;9689;51.052;13.772;2023-02-08T11:30:17;102883.28;;;0.36;58.83
19114;BME280;9689;51.052;13.772;2023-02-08T11:35:20;102878.41;;;0.40;58.58
19114;BME280;9689;51.052;13.772;2023-02-08T11:40:27;102878.72;;;0.45;58.42
19114;BME280;9689;51.052;13.772;2023-02-08T11:45:30;102872.97;;;0.49;58.06
19114;BME280;9689;51.052;13.772;2023-02-08T11:50:32;102869.13;;;0.55;56.81
19114;BME280;9689;51.052;13.772;2023-02-08T11:55:35;102877.47;;;0.66;56.81
19114;BME280;9689;51.052;13.772;2023-02-08T12:00:37;102873.84;;;0.63;57.71
19114;BME280;9689;51.052;13.772;2023-02-08T12:05:48;102869.44;;;0.75;56.64
19114;BME280;9689;51.052;13.772;2023-02-08T12:11:10;102871.09;;;1.02;60.32
19114;BME280;9689;51.052;13.772;2023-02-08T12:16:29;102875.44;;;1.03;55.64
19114;BME280;9689;51.052;13.772;2023-02-08T12:21:37;102867.94;;;1.06;55.64
19114;BME280;9689;51.052;13.772;2023-02-08T12:26:54;102850.44;;;1.14;55.52
19114;BME280;9689;51.052;13.772;2023-02-08T12:32:08;102851.13;;;1.11;54.86
19114;BME280;9689;51.052;13.772;2023-02-08T12:37:29;102844.75;;;1.05;55.26
19114;BME280;9689;51.052;13.772;2023-02-08T12:43:01;102843.06;;;1.05;55.33
19114;BME280;9689;51.052;13.772;2023-02-08T12:48:16;102849.44;;;1.12;54.61
19114;BME280;9689;51.052;13.772;2023-02-08T12:53:26;102847.88;;;0.86;54.12
19114;BME280;9689;51.052;13.772;2023-02-08T12:58:36;102842.94;;;1.04;54.24
19114;BME280;9689;51.052;13.772;2023-02-08T13:03:43;102851.22;;;1.13;52.72
19114;BME280;9689;51.052;13.772;2023-02-08T13:08:49;102845.91;;;1.25;52.18
19114;BME280;9689;51.052;13.772;2023-02-08T13:14:01;102829.97;;;1.16;52.99
19114;BME280;9689;51.052;13.772;2023-02-08T13:19:23;102819.00;;;1.33;52.10
19114;BME280;9689;51.052;13.772;2023-02-08T13:24:30;102813.25;;;1.22;52.63
19114;BME280;9689;51.052;13.772;2023-02-08T13:29:34;102802.97;;;1.22;53.17
19114;BME280;9689;51.052;13.772;2023-02-08T13:34:37;102788.69;;;1.27;52.35
19114;BME280;9689;51.052;13.772;2023-02-08T13:39:42;102791.25;;;1.12;52.89
19114;BME280;9689;51.052;13.772;2023-02-08T13:44:50;102777.09;;;1.19;52.93
19114;BME280;9689;51.052;13.772;2023-02-08T13:49:54;102782.44;;;1.22;53.14
19114;BME280;9689;51.052;13.772;2023-02-08T14:00:36;102777.38;;;1.24;53.42
19114;BME280;9689;51.052;13.772;2023-02-08T14:06:02;102778.88;;;1.20;53.94
19114;BME280;9689;51.052;13.772;2023-02-08T14:11:10;102777.38;;;1.24;53.78
19114;BME280;9689;51.052;13.772;2023-02-08T14:16:29;102776.50;;;1.23;54.11
19114;BME280;9689;51.052;13.772;2023-02-08T14:21:35;102771.97;;;1.19;53.86
19114;BME280;9689;51.052;13.772;2023-02-08T14:26:37;102770.72;;;1.12;53.44
19114;BME280;9689;51.052;13.772;2023-02-08T14:31:41;102782.94;;;1.02;53.60
19114;BME280;9689;51.052;13.772;2023-02-08T14:36:44;102761.16;;;1.10;53.59
19114;BME280;9689;51.052;13.772;2023-02-08T14:41:50;102766.19;;;0.94;54.23
19114;BME280;9689;51.052;13.772;2023-02-08T14:46:52;102772.50;;;0.99;53.90
19114;BME280;9689;51.052;13.772;2023-02-08T14:51:57;102768.44;;;0.88;54.62
19114;BME280;9689;51.052;13.772;2023-02-08T14:57:00;102765.56;;;0.83;54.55
19114;BME280;9689;51.052;13.772;2023-02-08T15:02:10;102759.72;;;0.71;55.17
19114;BME280;9689;51.052;13.772;2023-02-08T15:07:24;102768.72;;;0.64;54.99
19114;BME280;9689;51.052;13.772;2023-02-08T15:12:33;102760.28;;;0.52;56.50
19114;BME280;9689;51.052;13.772;2023-02-08T15:17:39;102764.03;;;0.57;56.94
19114;BME280;9689;51.052;13.772;2023-02-08T15:22:42;102759.69;;;0.56;56.48
19114;BME280;9689;51.052;13.772;2023-02-08T15:27:45;102754.16;;;0.35;57.34
19114;BME280;9689;51.052;13.772;2023-02-08T15:32:46;102745.78;;;0.24;57.36
19114;BME280;9689;51.052;13.772;2023-02-08T15:37:49;102729.00;;;0.30;59.41
19114;BME280;9689;51.052;13.772;2023-02-08T15:42:50;102729.72;;;0.70;68.24
19114;BME280;9689;51.052;13.772;2023-02-08T15:47:51;102727.50;;;1.20;68.38
19114;BME280;9689;51.052;13.772;2023-02-08T15:52:58;102716.19;;;0.30;60.02
19114;BME280;9689;51.052;13.772;2023-02-08T15:58:02;102717.66;;;-0.02;59.65
19114;BME280;9689;51.052;13.772;2023-02-08T16:03:08;102724.13;;;-0.22;59.70
19114;BME280;9689;51.052;13.772;2023-02-08T16:08:21;102716.00;;;-0.43;60.84
19114;BME280;9689;51.052;13.772;2023-02-08T16:13:24;102716.44;;;0.34;69.89
19114;BME280;9689;51.052;13.772;2023-02-08T16:18:36;102706.09;;;-0.37;62.68
19114;BME280;9689;51.052;13.772;2023-02-08T16:23:46;102717.06;;;-0.52;61.54
19114;BME280;9689;51.052;13.772;2023-02-08T16:28:52;102718.25;;;-0.87;63.00
19114;BME280;9689;51.052;13.772;2023-02-08T16:33:56;102714.31;;;-0.95;63.05
19114;BME280;9689;51.052;13.772;2023-02-08T16:39:21;102706.31;;;-1.00;63.18
19114;BME280;9689;51.052;13.772;2023-02-08T16:44:24;102710.34;;;-1.17;63.61
19114;BME280;9689;51.052;13.772;2023-02-08T16:49:25;102695.91;;;-1.03;63.10
19114;BME280;9689;51.052;13.772;2023-02-08T16:54:28;102703.44;;;-1.18;63.79
19114;BME280;9689;51.052;13.772;2023-02-08T16:59:28;102699.22;;;-1.17;nan
19114;BME280;9689;51.052;13.772;2023-02-08T17:04:29;102696.16;;;-1.25;63.91
19114;BME280;9689;51.052;13.772;2023-02-08T17:09:31;102698.28;;;-1.44;64.91
19114;BME280;9689;51.052;13.772;2023-02-08T17:14:32;102696.78;;;-1.54;65.39
19114;BME280;9689;51.052;13.772;2023-02-08T17:19:33;102708.78;;;-1.53;65.53
19114;BME280;9689;51.052;13.772;2023-02-08T17:24:35;102700.47;;;-1.62;66.45
19114;BME280;9689;51.052;13.772;2023-02-08T17:29:37;102710.81;;;-1.60;66.33
19114;BME280;9689;51.052;13.772;2023-02-08T17:34:38;102693.00;;;-1.59;66.19
19114;BME280;9689;51.052;13.772;2023-02-08T17:39:40;102689.47;;;-1.61;66.11
19114;BME280;9689;51.052;13.772;2023-02-08T17:44:41;102691.31;;;-1.72;66.36
19114;BME280;9689;51.052;13.772;2023-02-08T17:49:42;102679.31;;;-1.73;66.89
19114;BME280;9689;51.052;13.772;2023-02-08T17:54:44;102672.91;;;-1.66;66.31
19114;BME280;9689;51.052;13.772;2023-02-08T17:59:44;102676.53;;;-1.76;66.52
19114;BME280;9689;51.052;13.772;2023-02-08T18:04:45;102680.13;;;-1.85;67.38
19114;BME280;9689;51.052;13.772;2023-02-08T18:09:47;102671.47;;;-1.87;66.86
19114;BME280;9689;51.052;13.772;2023-02-08T18:14:48;102670.59;;;-1.88;66.99
19114;BME280;9689;51.052;13.772;2023-02-08T18:19:49;102666.38;;;-1.87;67.12
19114;BME280;9689;51.052;13.772;2023-02-08T18:24:52;102659.25;;;-1.91;67.60
19114;BME280;9689;51.052;13.772;2023-02-08T18:29:53;102666.72;;;-1.94;67.92
19114;BME280;9689;51.052;13.772;2023-02-08T18:34:54;102670.53;;;-2.01;67.67
19114;BME280;9689;51.052;13.772;2023-02-08T18:39:58;102670.06;;;-1.95;67.64
19114;BME280;9689;51.052;13.772;2023-02-08T18:44:59;102663.97;;;-1.97;67.81
19114;BME280;9689;51.052;13.772;2023-02-08T18:50:00;102679.75;;;-2.03;67.92
19114;BME280;9689;51.052;13.772;2023-02-08T18:55:02;102670.47;;;-2.14;68.44
19114;BME280;9689;51.052;13.772;2023-02-08T19:00:04;102661.44;;;-2.09;68.08
19114;BME280;9689;51.052;13.772;2023-02-08T19:05:06;102650.13;;;-2.13;68.61
19114;BME280;9689;51.052;13.772;2023-02-08T19:10:08;102640.56;;;-2.04;68.42
19114;BME280;9689;51.052;13.772;2023-02-08T19:15:09;102635.16;;;-2.08;68.45
19114;BME280;9689;51.052;13.772;2023-02-08T19:20:10;102628.47;;;-2.06;68.56
19114;BME280;9689;51.052;13.772;2023-02-08T19:25:12;102609.91;;;-2.04;68.38
19114;BME280;9689;51.052;13.772;2023-02-08T19:30:13;102599.38;;;-2.08;68.39
19114;BME280;9689;51.052;13.772;2023-02-08T19:35:15;102588.78;;;-2.01;68.42
19114;BME280;9689;51.052;13.772;2023-02-08T19:40:19;102593.16;;;-2.12;68.66
19114;BME280;9689;51.052;13.772;2023-02-08T19:45:20;102582.94;;;-2.12;69.26
19114;BME280;9689;51.052;13.772;2023-02-08T19:50:20;102571.03;;;-2.24;69.20
19114;BME280;9689;51.052;13.772;2023-02-08T19:55:23;102571.13;;;-2.23;69.06
19114;BME280;9689;51.052;13.772;2023-02-08T20:00:23;102566.56;;;-2.27;69.69
19114;BME280;9689;51.052;13.772;2023-02-08T20:05:24;102567.88;;;-2.20;68.89
19114;BME280;9689;51.052;13.772;2023-02-08T20:10:26;102556.88;;;-2.19;69.03
19114;BME280;9689;51.052;13.772;2023-02-08T20:15:27;102549.53;;;-2.15;68.67
19114;BME280;9689;51.052;13.772;2023-02-08T20:20:28;102545.31;;;-2.14;68.44
19114;BME280;9689;51.052;13.772;2023-02-08T20:25:30;102535.78;;;-2.17;68.56
19114;BME280;9689;51.052;13.772;2023-02-08T20:30:31;102526.72;;;-2.25;68.34
19114;BME280;9689;51.052;13.772;2023-02-08T20:35:34;102528.50;;;-2.24;67.90
19114;BME280;9689;51.052;13.772;2023-02-08T20:40:37;102519.88;;;-2.13;67.41
19114;BME280;9689;51.052;13.772;2023-02-08T20:45:39;102513.28;;;-2.22;67.39
19114;BME280;9689;51.052;13.772;2023-02-08T20:50:40;102515.63;;;-2.25;67.35
19114;BME280;9689;51.052;13.772;2023-02-08T20:55:42;102512.28;;;-2.24;67.54
19114;BME280;9689;51.052;13.772;2023-02-08T21:00:44;102498.31;;;-2.30;67.32
19114;BME280;9689;51.052;13.772;2023-02-08T21:05:45;102485.75;;;-2.27;67.05
19114;BME280;9689;51.052;13.772;2023-02-08T21:10:47;102484.81;;;-2.15;66.57
19114;BME280;9689;51.052;13.772;2023-02-08T21:15:47;102482.03;;;-2.18;65.97
19114;BME280;9689;51.052;13.772;2023-02-08T21:20:48;102470.16;;;-2.18;66.06
19114;BME280;9689;51.052;13.772;2023-02-08T21:25:51;102463.97;;;-2.21;65.79
19114;BME280;9689;51.052;13.772;2023-02-08T21:30:55;102451.84;;;-1.99;64.76
19114;BME280;9689;51.052;13.772;2023-02-08T21:36:00;102442.38;;;-2.00;64.30
19114;BME280;9689;51.052;13.772;2023-02-08T21:41:06;102436.09;;;-1.92;63.85
19114;BME280;9689;51.052;13.772;2023-02-08T21:46:08;102421.56;;;-1.80;63.31
19114;BME280;9689;51.052;13.772;2023-02-08T21:51:08;102428.13;;;-1.70;62.40
19114;BME280;9689;51.052;13.772;2023-02-08T21:56:28;102421.94;;;-1.60;61.88
19114;BME280;9689;51.052;13.772;2023-02-08T22:01:29;102403.06;;;-1.62;61.84
19114;BME280;9689;51.052;13.772;2023-02-08T22:06:30;102399.63;;;-1.63;62.02
19114;BME280;9689;51.052;13.772;2023-02-08T22:11:33;102390.88;;;-1.66;61.90
19114;BME280;9689;51.052;13.772;2023-02-08T22:16:34;102397.16;;;-1.75;62.05
19114;BME280;9689;51.052;13.772;2023-02-08T22:21:35;102388.03;;;-1.71;62.13
19114;BME280;9689;51.052;13.772;2023-02-08T22:26:37;102396.50;;;-1.72;62.13
19114;BME280;9689;51.052;13.772;2023-02-08T22:31:37;102390.69;;;-1.69;62.47
19114;BME280;9689;51.052;13.772;2023-02-08T22:36:38;102388.91;;;-1.71;62.24
19114;BME280;9689;51.052;13.772;2023-02-08T22:41:41;102376.84;;;-1.73;62.72
19114;BME280;9689;51.052;13.772;2023-02-08T22:46:41;102379.09;;;-1.64;62.06
19114;BME280;9689;51.052;13.772;2023-02-08T22:51:42;102373.69;;;-1.69;61.99
19114;BME280;9689;51.052;13.772;2023-02-08T22:56:44;102371.44;;;-1.78;62.54
19114;BME280;9689;51.052;13.772;2023-02-08T23:01:45;102361.22;;;-1.78;62.99
19114;BME280;9689;51.052;13.772;2023-02-08T23:06:46;102359.03;;;-1.72;62.24
19114;BME280;9689;51.052;13.772;2023-02-08T23:11:48;102354.53;;;-1.89;62.99
19114;BME280;9689;51.052;13.772;2023-02-08T23:16:49;102352.56;;;-1.80;62.67
19114;BME280;9689;51.052;13.772;2023-02-08T23:21:50;102346.00;;;-1.89;62.83
19114;BME280;9689;51.052;13.772;2023-02-08T23:26:52;102346.97;;;-1.87;63.09
19114;BME280;9689;51.052;13.772;2023-02-08T23:31:53;102339.69;;;-1.94;63.14
19114;BME280;9689;51.052;13.772;2023-02-08T23:36:54;102341.28;;;-2.10;63.67
19114;BME280;9689;51.052;13.772;2023-02-08T23:41:56;102338.72;;;-1.96;63.08
19114;BME280;9689;51.052;13.772;2023-02-08T23:46:56;102330.94;;;-1.85;62.28
19114;BME280;9689;51.052;13.772;2023-02-08T23:51:57;102330.56;;;-1.91;63.14
19114;BME280;9689;51.052;13.772;2023-02-08T23:56:59;102329.19;;;-1.86;62.53
